createdAt,value
2022-08-03T00:00:27.419Z,8.77
2022-08-03T00:02:54.284Z,10.20
2022-08-03T00:05:21.284Z,7.75
2022-08-03T00:07:48.447Z,9.35
2022-08-03T00:10:16.654Z,8.50
2022-08-03T00:12:43.580Z,10.00
2022-08-03T00:15:16.366Z,6.60
2022-08-03T00:17:52.384Z,8.18
2022-08-03T00:20:21.632Z,11.70
2022-08-03T00:22:48.946Z,7.20
2022-08-03T00:25:15.931Z,7.55
2022-08-03T00:27:42.725Z,8.73
2022-08-03T00:30:09.982Z,10.48
2022-08-03T00:32:36.768Z,10.27
2022-08-03T00:35:09.826Z,12.52
2022-08-03T00:37:41.167Z,8.95
2022-08-03T00:40:13.627Z,8.95
2022-08-03T00:42:57.072Z,10.68
2022-08-03T00:45:29.833Z,7.95
2022-08-03T00:47:57.503Z,11.15
2022-08-03T00:50:26.264Z,9.68
2022-08-03T00:52:55.338Z,9.43
2022-08-03T00:55:22.939Z,8.18
2022-08-03T00:57:49.975Z,11.18
2022-08-03T01:00:20.302Z,10.77
2022-08-03T01:02:49.841Z,11.98
2022-08-03T01:05:16.804Z,9.70
2022-08-03T01:08:07.911Z,9.90
2022-08-03T01:11:17.650Z,7.30
2022-08-03T01:14:19.209Z,12.20
2022-08-03T01:16:59.603Z,12.60
2022-08-03T01:19:38.354Z,14.20
2022-08-03T01:22:23.293Z,12.05
2022-08-03T01:25:17.574Z,11.35
2022-08-03T01:28:13.251Z,11.35
2022-08-03T01:30:43.727Z,12.57
2022-08-03T01:33:17.533Z,13.15
2022-08-03T01:36:13.169Z,11.70
2022-08-03T01:38:47.701Z,11.95
2022-08-03T01:41:20.143Z,13.50
2022-08-03T01:44:27.242Z,13.20
2022-08-03T01:46:39.213Z,10.93
2022-08-03T01:49:10.454Z,11.93
2022-08-03T01:51:56.129Z,11.02
2022-08-03T01:54:32.729Z,7.97
2022-08-03T01:57:00.142Z,8.80
2022-08-03T01:59:28.873Z,15.32
2022-08-03T02:02:15.282Z,9.80
2022-08-03T02:04:47.089Z,11.02
2022-08-03T02:07:15.812Z,10.10
2022-08-03T02:09:45.343Z,9.95
2022-08-03T02:12:14.087Z,12.68
2022-08-03T02:14:43.329Z,14.82
2022-08-03T02:17:12.516Z,9.57
2022-08-03T02:19:40.682Z,14.23
2022-08-03T02:22:11.843Z,10.07
2022-08-03T02:24:39.205Z,10.10
2022-08-03T02:27:16.278Z,10.50
2022-08-03T02:29:46.606Z,12.95
2022-08-03T02:32:17.808Z,16.05
2022-08-03T02:34:49.015Z,17.88
2022-08-03T02:37:19.907Z,13.60
2022-08-03T02:39:48.270Z,14.30
2022-08-03T02:42:16.551Z,12.93
2022-08-03T02:44:47.779Z,13.65
2022-08-03T02:47:15.834Z,15.00
2022-08-03T02:49:50.639Z,12.52
2022-08-03T02:52:21.070Z,9.98
2022-08-03T02:54:50.311Z,13.95
2022-08-03T02:57:19.466Z,13.57
2022-08-03T02:59:47.142Z,15.88
2022-08-03T03:02:16.968Z,11.88
2022-08-03T03:05:50.670Z,12.32
2022-08-03T03:07:45.425Z,12.10
2022-08-03T03:10:21.741Z,14.75
2022-08-03T03:12:55.445Z,18.88
2022-08-03T03:15:23.833Z,13.30
2022-08-03T03:17:51.764Z,12.52
2022-08-03T03:20:29.285Z,12.20
2022-08-03T03:23:00.336Z,13.95
2022-08-03T03:25:34.456Z,12.05
2022-08-03T03:28:02.585Z,17.17
2022-08-03T03:30:30.172Z,13.57
2022-08-03T03:32:58.847Z,13.63
2022-08-03T03:35:27.609Z,12.35
2022-08-03T03:37:54.698Z,19.73
2022-08-03T03:40:22.641Z,14.63
2022-08-03T03:42:50.572Z,11.80
2022-08-03T03:45:18.702Z,11.77
2022-08-03T03:47:45.744Z,8.90
2022-08-03T03:50:12.839Z,10.52
2022-08-03T03:52:39.758Z,10.32
2022-08-03T03:55:07.072Z,13.15
2022-08-03T03:57:35.065Z,12.02
2022-08-03T04:00:01.972Z,11.93
2022-08-03T04:02:28.827Z,12.02
2022-08-03T04:05:14.275Z,15.88
2022-08-03T04:08:09.194Z,14.38
2022-08-03T04:10:56.250Z,15.35
2022-08-03T04:13:24.911Z,13.77
2022-08-03T04:15:52.586Z,15.85
2022-08-03T04:18:20.406Z,11.27
2022-08-03T04:20:48.822Z,15.60
2022-08-03T04:23:19.222Z,8.27
2022-08-03T04:25:49.044Z,12.23
2022-08-03T04:28:30.543Z,9.10
2022-08-03T04:31:01.065Z,13.02
2022-08-03T04:33:31.183Z,15.98
2022-08-03T04:36:03.390Z,12.60
2022-08-03T04:38:36.794Z,14.80
2022-08-03T04:41:04.897Z,8.38
2022-08-03T04:43:34.206Z,13.63
2022-08-03T04:46:02.892Z,7.50
2022-08-03T04:48:29.731Z,11.43
2022-08-03T04:50:57.079Z,13.68
2022-08-03T04:53:23.956Z,11.45
2022-08-03T04:55:50.798Z,10.93
2022-08-03T04:58:17.614Z,11.15
2022-08-03T05:00:45.663Z,16.10
2022-08-03T05:03:23.645Z,8.85
2022-08-03T05:05:53.207Z,19.05
2022-08-03T05:08:29.559Z,10.88
2022-08-03T05:10:58.992Z,9.00
2022-08-03T05:13:26.559Z,7.70
2022-08-03T05:15:53.511Z,8.65
2022-08-03T05:18:20.473Z,12.38
2022-08-03T05:20:47.566Z,8.95
2022-08-03T05:23:14.645Z,10.13
2022-08-03T05:25:46.179Z,8.38
2022-08-03T05:30:43.714Z,7.53
2022-08-03T05:33:11.033Z,8.95
2022-08-03T05:36:01.258Z,10.73
2022-08-03T05:38:34.129Z,8.88
2022-08-03T05:41:21.624Z,10.52
2022-08-03T05:43:55.197Z,11.68
2022-08-03T05:46:22.671Z,10.90
2022-08-03T05:48:49.817Z,10.18
2022-08-03T05:51:17.162Z,13.15
2022-08-03T05:53:44.647Z,11.95
2022-08-03T05:56:13.927Z,15.70
2022-08-03T05:58:47.256Z,11.23
2022-08-03T06:01:15.802Z,12.18
2022-08-03T06:03:42.814Z,10.13
2022-08-03T06:06:09.797Z,10.00
2022-08-03T06:08:36.921Z,6.97
2022-08-03T06:11:04.832Z,9.27
2022-08-03T06:13:32.266Z,11.98
2022-08-03T06:15:59.217Z,9.57
2022-08-03T06:18:26.233Z,8.32
2022-08-03T06:20:53.706Z,6.25
2022-08-03T06:23:22.086Z,10.38
2022-08-03T06:25:49.135Z,12.93
2022-08-03T06:31:03.640Z,16.05
2022-08-03T06:34:29.099Z,12.25
2022-08-03T06:36:20.691Z,11.30
2022-08-03T06:38:47.862Z,12.02
2022-08-03T06:41:14.719Z,12.20
2022-08-03T06:44:03.173Z,8.27
2022-08-03T06:46:29.180Z,19.88
2022-08-03T06:48:56.683Z,9.10
2022-08-03T06:52:05.717Z,9.48
2022-08-03T06:54:10.946Z,13.23
2022-08-03T06:56:37.822Z,13.13
2022-08-03T06:59:04.697Z,8.40
2022-08-03T07:01:31.603Z,12.90
2022-08-03T07:03:58.552Z,12.13
2022-08-03T07:06:25.666Z,12.57
2022-08-03T07:08:56.476Z,7.80
2022-08-03T07:11:26.043Z,8.48
2022-08-03T07:13:52.813Z,27.55
2022-08-03T07:16:20.239Z,11.55
2022-08-03T07:18:46.988Z,13.60
2022-08-03T07:21:13.847Z,15.85
2022-08-03T07:23:40.659Z,14.93
2022-08-03T07:26:07.677Z,12.85
2022-08-03T07:28:34.601Z,11.00
2022-08-03T07:31:01.385Z,12.60
2022-08-03T07:33:28.230Z,12.88
2022-08-03T07:35:55.101Z,13.52
2022-08-03T07:38:21.977Z,9.73
2022-08-03T07:40:48.928Z,11.10
2022-08-03T07:45:46.142Z,14.05
2022-08-03T07:48:12.934Z,7.32
2022-08-03T07:50:40.353Z,16.98
2022-08-03T07:53:07.150Z,10.27
2022-08-03T07:55:35.198Z,7.30
2022-08-03T07:58:12.189Z,12.95
2022-08-03T08:00:39.364Z,11.43
2022-08-03T08:03:06.454Z,16.17
2022-08-03T08:05:33.940Z,16.10
2022-08-03T08:08:04.735Z,13.95
2022-08-03T08:10:32.835Z,13.00
2022-08-03T08:13:00.095Z,13.75
2022-08-03T08:15:26.908Z,12.68
2022-08-03T08:17:57.226Z,9.63
2022-08-03T08:20:30.792Z,16.70
2022-08-03T08:23:01.982Z,12.82
2022-08-03T08:25:31.441Z,11.65
2022-08-03T08:28:28.995Z,11.75
2022-08-03T08:30:49.833Z,11.10
2022-08-03T08:33:23.156Z,19.65
2022-08-03T08:35:53.067Z,11.93
2022-08-03T08:38:19.920Z,13.10
2022-08-03T08:40:47.693Z,9.68
2022-08-03T08:43:14.503Z,14.38
2022-08-03T08:45:42.445Z,10.27
2022-08-03T08:48:13.090Z,13.25
2022-08-03T08:50:40.033Z,14.55
2022-08-03T08:53:09.840Z,18.48
2022-08-03T08:55:58.576Z,12.20
2022-08-03T08:58:30.873Z,14.70
2022-08-03T09:00:57.826Z,12.63
2022-08-03T09:03:29.627Z,16.33
2022-08-03T09:05:59.272Z,14.35
2022-08-03T09:08:26.452Z,12.40
2022-08-03T09:10:53.330Z,10.27
2022-08-03T09:13:20.152Z,13.05
2022-08-03T09:16:00.972Z,12.95
2022-08-03T09:18:32.694Z,17.38
2022-08-03T09:21:33.178Z,16.98
2022-08-03T09:24:05.307Z,15.75
2022-08-03T09:26:37.957Z,16.33
2022-08-03T09:29:14.491Z,19.35
2022-08-03T09:31:43.641Z,18.80
2022-08-03T09:34:15.699Z,12.40
2022-08-03T09:36:46.659Z,14.63
2022-08-03T09:39:18.825Z,17.00
2022-08-03T09:41:48.884Z,17.98
2022-08-03T09:44:25.664Z,18.90
2022-08-03T09:46:56.970Z,20.30
2022-08-03T09:49:25.190Z,27.10
2022-08-03T09:52:32.305Z,11.27
2022-08-03T09:54:40.759Z,15.73
2022-08-03T09:57:07.545Z,20.42
2022-08-03T09:59:34.929Z,24.50
2022-08-03T10:02:02.083Z,22.73
2022-08-03T10:04:29.240Z,12.25
2022-08-03T10:07:05.791Z,14.70
2022-08-03T10:09:33.230Z,15.10
2022-08-03T10:12:12.306Z,15.77
2022-08-03T10:14:41.818Z,17.65
2022-08-03T10:17:09.958Z,17.33
2022-08-03T10:19:37.713Z,10.27
2022-08-03T10:22:14.843Z,17.65
2022-08-03T10:24:56.375Z,21.13
2022-08-03T10:27:24.429Z,15.57
2022-08-03T10:29:56.513Z,15.07
2022-08-03T10:32:30.249Z,15.73
2022-08-03T10:35:21.064Z,20.23
2022-08-03T10:38:07.369Z,17.80
2022-08-03T10:40:52.618Z,17.80
2022-08-03T10:43:27.576Z,16.45
2022-08-03T10:45:55.169Z,20.42
2022-08-03T10:48:22.739Z,20.00
2022-08-03T10:50:50.419Z,14.88
2022-08-03T10:53:33.585Z,14.98
2022-08-03T10:56:23.424Z,19.80
2022-08-03T10:59:08.955Z,19.95
2022-08-03T11:02:00.105Z,11.75
2022-08-03T11:04:29.553Z,14.52
2022-08-03T11:07:16.229Z,11.85
2022-08-03T11:09:48.690Z,20.25
2022-08-03T11:12:32.228Z,18.90
2022-08-03T11:15:09.292Z,23.55
2022-08-03T11:17:46.174Z,16.15
2022-08-03T11:20:45.197Z,20.92
2022-08-03T11:23:12.266Z,14.57
2022-08-03T11:26:10.858Z,22.73
2022-08-03T11:28:41.177Z,22.80
2022-08-03T11:34:13.781Z,17.52
2022-08-03T11:37:20.457Z,15.13
2022-08-03T11:39:49.416Z,17.23
2022-08-03T11:42:26.250Z,13.27
2022-08-03T11:45:00.637Z,12.50
2022-08-03T11:47:29.926Z,15.93
2022-08-03T11:49:59.202Z,23.05
2022-08-03T11:52:27.307Z,27.08
2022-08-03T11:54:57.013Z,16.27
2022-08-03T11:59:01.719Z,20.92
2022-08-03T12:00:26.017Z,25.33
2022-08-03T12:03:08.297Z,14.57
2022-08-03T12:05:51.403Z,16.77
2022-08-03T12:08:27.922Z,16.08
2022-08-03T12:10:56.455Z,18.67
2022-08-03T12:14:44.892Z,19.40
2022-08-03T12:16:17.690Z,18.98
2022-08-03T12:18:44.680Z,17.90
2022-08-03T12:21:12.526Z,16.67
2022-08-03T12:23:39.731Z,17.08
2022-08-03T12:26:08.913Z,13.82
2022-08-03T12:28:38.412Z,16.05
2022-08-03T12:31:11.903Z,18.23
2022-08-03T12:33:58.984Z,14.25
2022-08-03T12:36:26.739Z,10.82
2022-08-03T12:39:00.746Z,16.88
2022-08-03T12:41:34.056Z,12.52
2022-08-03T12:44:03.525Z,10.40
2022-08-03T12:46:32.866Z,14.73
2022-08-03T12:49:02.548Z,17.75
2022-08-03T12:51:32.284Z,15.50
2022-08-03T12:53:59.656Z,12.00
2022-08-03T12:56:27.183Z,15.85
2022-08-03T12:58:54.497Z,13.55
2022-08-03T13:01:26.074Z,17.17
2022-08-03T13:03:53.813Z,10.50
2022-08-03T13:06:24.656Z,16.23
2022-08-03T13:09:04.348Z,19.10
2022-08-03T13:11:55.955Z,15.80
2022-08-03T13:14:20.025Z,16.60
2022-08-03T13:16:50.246Z,19.52
2022-08-03T13:19:17.071Z,11.82
2022-08-03T13:21:53.772Z,17.95
2022-08-03T13:24:32.806Z,15.93
2022-08-03T13:27:00.417Z,13.55
2022-08-03T13:29:27.204Z,17.77
2022-08-03T13:31:54.097Z,13.85
2022-08-03T13:34:23.551Z,15.25
2022-08-03T13:37:09.307Z,10.60
2022-08-03T13:39:58.279Z,16.73
2022-08-03T13:42:27.389Z,13.80
2022-08-03T13:44:54.197Z,12.80
2022-08-03T13:47:21.334Z,12.57
2022-08-03T13:49:59.779Z,10.98
2022-08-03T13:52:33.507Z,14.68
2022-08-03T13:55:01.269Z,12.27
2022-08-03T13:58:04.434Z,13.07
2022-08-03T14:00:28.071Z,15.20
2022-08-03T14:03:09.099Z,14.10
2022-08-03T14:05:39.496Z,12.52
2022-08-03T14:08:07.335Z,17.40
2022-08-03T14:10:35.849Z,12.85
2022-08-03T14:13:03.296Z,11.88
2022-08-03T14:15:30.265Z,15.50
2022-08-03T14:17:58.517Z,15.63
2022-08-03T14:20:36.267Z,10.35
2022-08-03T14:23:04.459Z,11.32
2022-08-03T14:25:49.963Z,9.73
2022-08-03T14:28:20.065Z,11.32
2022-08-03T14:30:47.835Z,18.02
2022-08-03T14:33:14.865Z,11.68
2022-08-03T14:35:41.750Z,14.45
2022-08-03T14:38:08.542Z,13.57
2022-08-03T14:40:35.429Z,11.07
2022-08-03T14:43:02.570Z,15.60
2022-08-03T14:45:29.418Z,17.05
2022-08-03T14:50:29.464Z,13.23
2022-08-03T14:50:48.376Z,14.23
2022-08-03T14:53:17.676Z,8.70
2022-08-03T14:55:50.859Z,14.48
2022-08-03T14:58:22.965Z,15.27
2022-08-03T15:00:51.859Z,11.35
2022-08-03T15:03:25.728Z,20.48
2022-08-03T15:05:56.936Z,10.82
2022-08-03T15:08:25.426Z,14.50
2022-08-03T15:10:55.448Z,15.25
2022-08-03T15:13:22.795Z,16.02
2022-08-03T15:15:50.001Z,13.85
2022-08-03T15:18:16.917Z,12.95
2022-08-03T15:20:46.006Z,21.23
2022-08-03T15:23:15.909Z,20.00
2022-08-03T15:26:28.462Z,13.52
2022-08-03T15:28:33.587Z,15.20
2022-08-03T15:31:00.936Z,18.00
2022-08-03T15:33:28.593Z,13.43
2022-08-03T15:35:56.634Z,15.73
2022-08-03T15:38:25.956Z,16.92
2022-08-03T15:40:54.587Z,12.40
2022-08-03T15:43:22.768Z,18.45
2022-08-03T15:45:54.660Z,13.18
2022-08-03T15:48:36.652Z,14.43
2022-08-03T15:51:04.618Z,15.40
2022-08-03T15:53:31.484Z,15.13
2022-08-03T15:55:58.252Z,12.90
2022-08-03T15:59:04.357Z,18.25
2022-08-03T16:01:19.842Z,18.45
2022-08-03T16:03:47.042Z,17.05
2022-08-03T16:06:13.960Z,10.95
2022-08-03T16:08:40.801Z,17.17
2022-08-03T16:11:07.595Z,14.38
2022-08-03T16:14:14.090Z,13.13
2022-08-03T16:16:21.222Z,8.93
2022-08-03T16:18:48.026Z,13.60
2022-08-03T16:21:16.353Z,14.98
2022-08-03T16:23:47.325Z,20.70
2022-08-03T16:26:14.617Z,14.05
2022-08-03T16:28:41.562Z,14.88
2022-08-03T16:31:09.175Z,18.90
2022-08-03T16:33:36.264Z,20.98
2022-08-03T16:36:03.401Z,13.98
2022-08-03T16:38:30.572Z,13.73
2022-08-03T16:40:57.514Z,16.63
2022-08-03T16:43:24.782Z,11.13
2022-08-03T16:45:52.105Z,17.48
2022-08-03T16:48:19.184Z,16.23
2022-08-03T16:50:46.250Z,17.33
2022-08-03T16:53:16.486Z,12.23
2022-08-03T16:55:53.421Z,16.60
2022-08-03T16:58:41.215Z,14.35
2022-08-03T17:01:24.348Z,16.80
2022-08-03T17:04:04.852Z,12.13
2022-08-03T17:06:37.217Z,11.63
2022-08-03T17:09:12.749Z,15.82
2022-08-03T17:14:21.873Z,13.63
2022-08-03T17:16:52.559Z,14.10
2022-08-03T17:19:23.012Z,11.68
2022-08-03T17:22:10.614Z,12.10
2022-08-03T17:24:41.177Z,12.35
2022-08-03T17:28:41.815Z,14.57
2022-08-03T17:30:03.765Z,12.85
2022-08-03T17:32:34.188Z,15.10
2022-08-03T17:35:01.036Z,9.25
2022-08-03T17:37:57.656Z,7.80
2022-08-03T17:40:17.480Z,7.57
2022-08-03T17:42:50.741Z,8.80
2022-08-03T17:45:18.133Z,8.80
2022-08-03T17:47:46.189Z,8.45
2022-08-03T17:50:33.109Z,6.30
2022-08-03T17:53:15.472Z,7.78
2022-08-03T17:56:45.125Z,6.63
2022-08-03T17:58:55.845Z,8.30
2022-08-03T18:02:03.674Z,7.75
2022-08-03T18:04:41.902Z,8.48
2022-08-03T18:07:12.463Z,6.32
2022-08-03T18:10:05.861Z,6.93
2022-08-03T18:12:53.494Z,5.28
2022-08-03T18:15:35.030Z,9.77
2022-08-03T18:18:10.823Z,8.77
2022-08-03T18:23:36.639Z,4.72
2022-08-03T18:26:12.034Z,10.18
2022-08-03T18:28:39.733Z,9.82
2022-08-03T18:31:10.084Z,9.60
2022-08-03T18:34:18.285Z,6.65
2022-08-03T18:36:30.589Z,8.52
2022-08-03T18:38:59.807Z,15.25
2022-08-03T18:41:32.257Z,16.70
2022-08-03T18:44:08.814Z,26.83
2022-08-03T18:47:16.752Z,20.40
2022-08-03T18:50:19.337Z,23.30
2022-08-03T18:53:16.596Z,21.27
2022-08-03T18:56:02.180Z,20.55
2022-08-03T18:58:51.387Z,22.48
2022-08-03T19:01:58.294Z,19.40
2022-08-03T19:04:29.567Z,23.17
2022-08-03T19:07:03.280Z,19.35
2022-08-03T19:09:49.368Z,27.75
2022-08-03T19:12:30.996Z,18.13
2022-08-03T19:15:12.631Z,22.30
2022-08-03T19:17:50.201Z,17.45
2022-08-03T19:20:22.771Z,19.33
2022-08-03T19:22:53.120Z,18.42
2022-08-03T19:25:20.457Z,18.70
2022-08-03T19:28:04.099Z,16.05
2022-08-03T19:30:38.806Z,16.92
2022-08-03T19:33:12.011Z,20.48
2022-08-03T19:35:54.748Z,22.45
2022-08-03T19:38:28.442Z,19.02
2022-08-03T19:41:02.539Z,23.45
2022-08-03T19:43:57.561Z,25.55
2022-08-03T19:46:31.612Z,25.75
2022-08-03T19:49:04.302Z,23.38
2022-08-03T19:52:01.514Z,15.20
2022-08-03T19:54:29.808Z,18.35
2022-08-03T19:57:00.202Z,25.30
2022-08-03T19:59:32.266Z,20.42
2022-08-03T20:01:59.225Z,22.08
2022-08-03T20:04:26.079Z,21.27
2022-08-03T20:06:57.065Z,17.80
2022-08-03T20:09:24.326Z,24.45
2022-08-03T20:11:57.409Z,18.80
2022-08-03T20:14:26.267Z,21.20
2022-08-03T20:16:53.695Z,16.92
2022-08-03T20:19:20.649Z,18.95
2022-08-03T20:21:50.017Z,19.40
2022-08-03T20:24:25.210Z,18.60
2022-08-03T20:26:57.999Z,22.08
2022-08-03T20:30:05.212Z,14.40
2022-08-03T20:32:24.734Z,16.42
2022-08-03T20:34:52.739Z,17.83
2022-08-03T20:37:20.077Z,16.92
2022-08-03T20:39:49.395Z,19.92
2022-08-03T20:42:21.219Z,22.25
2022-08-03T20:44:58.937Z,21.48
2022-08-03T20:47:35.956Z,18.58
2022-08-03T20:50:04.495Z,19.42
2022-08-03T20:52:36.467Z,16.58
2022-08-03T20:55:17.591Z,17.73
2022-08-03T20:57:49.098Z,20.38
2022-08-03T21:00:19.556Z,16.95
2022-08-03T21:02:49.076Z,27.17
2022-08-03T21:05:16.589Z,24.80
2022-08-03T21:10:42.101Z,23.35
2022-08-03T21:12:57.779Z,10.00
2022-08-03T21:13:08.099Z,21.17
2022-08-03T21:13:30.117Z,21.98
2022-08-03T21:16:03.015Z,21.60
2022-08-03T21:18:48.965Z,22.85
2022-08-03T21:21:18.184Z,23.67
2022-08-03T21:23:49.647Z,16.15
2022-08-03T21:26:19.101Z,22.75
2022-08-03T21:28:50.958Z,22.52
2022-08-03T21:31:24.580Z,22.75
2022-08-03T21:33:58.220Z,27.00
2022-08-03T21:36:27.525Z,17.95
2022-08-03T21:38:57.017Z,27.13
2022-08-03T21:41:30.511Z,24.42
2022-08-03T21:43:58.283Z,28.90
2022-08-03T21:46:27.100Z,23.60
2022-08-03T21:50:04.303Z,31.20
2022-08-03T21:51:48.758Z,27.40
2022-08-03T21:54:16.606Z,19.45
2022-08-03T21:56:46.738Z,24.40
2022-08-03T21:59:18.617Z,25.13
2022-08-03T22:01:48.815Z,30.33
2022-08-03T22:04:50.627Z,27.65
2022-08-03T22:07:08.426Z,34.70
2022-08-03T22:09:36.361Z,26.50
2022-08-03T22:12:03.832Z,30.58
2022-08-03T22:14:33.077Z,21.15
2022-08-03T22:17:00.755Z,28.85
2022-08-03T22:19:33.201Z,22.15
2022-08-03T22:22:01.529Z,26.92
2022-08-03T22:24:30.517Z,34.65
2022-08-03T22:27:16.001Z,31.85
2022-08-03T22:29:43.404Z,33.17
2022-08-03T22:32:10.530Z,36.55
2022-08-03T22:34:38.502Z,28.23
2022-08-03T22:37:06.794Z,34.40
2022-08-03T22:39:35.062Z,31.98
2022-08-03T22:42:06.005Z,24.05
2022-08-03T22:44:35.000Z,34.83
2022-08-03T22:47:03.489Z,34.55
2022-08-03T22:49:32.227Z,25.45
2022-08-03T22:51:59.710Z,29.08
2022-08-03T22:54:27.050Z,33.58
2022-08-03T22:56:54.375Z,34.95
2022-08-03T22:59:39.136Z,34.38
2022-08-03T23:02:19.900Z,30.40
2022-08-03T23:04:52.199Z,37.65
2022-08-03T23:07:30.329Z,28.85
2022-08-03T23:09:58.319Z,33.35
2022-08-03T23:12:26.928Z,34.38
2022-08-03T23:14:57.683Z,32.95
2022-08-03T23:17:26.907Z,33.75
2022-08-03T23:19:55.773Z,24.98
2022-08-03T23:22:30.187Z,29.17
2022-08-03T23:24:59.195Z,26.67
2022-08-03T23:27:27.756Z,30.48
2022-08-03T23:29:58.340Z,30.60
2022-08-03T23:32:29.941Z,26.63
2022-08-03T23:35:19.036Z,34.63
2022-08-03T23:38:03.947Z,24.95
2022-08-03T23:40:35.077Z,26.25
2022-08-03T23:43:02.723Z,36.60
2022-08-03T23:45:34.095Z,45.22
2022-08-03T23:48:01.199Z,31.67
2022-08-03T23:50:38.191Z,43.17
2022-08-03T23:53:28.216Z,32.83
2022-08-03T23:56:19.226Z,28.52
2022-08-03T23:59:01.309Z,32.40
